Latest Weather Observations for Mount Wellington

IDT60801

Issued at 4:31 pm EDT Tuesday 27 January 2015 (issued every 30 minutes, with the page automatically refreshed every 10 minutes)

About weather observations | Map of weather stations | Latest weather observations for TAS | Other Formats
Station Details ID: 094087 Name: MOUNT WELLINGTON Lat: -42.90 Lon: 147.24 Height: 1260.47 m
Data from the previous 72 hours. | See also: Recent months at Mount Wellington
Date/Time
EDT
Temp
°C
App
Temp
°C
Dew
Point
Rel
Hum
%
Delta-T
°C
Wind Press
QNH
hPa
Press
MSL
hPa
Rain
since 9 am
mm
Dir
 
Spd
km/h
Gust
km/h
Spd
kts
Gust
kts
27/04:30pm 5.4 0.6 4.7 95 0.3 SSW 19 28 10 15 - - 1.2
27/04:00pm 6.7 3.0 6.3 97 0.2 SSW 15 20 8 11 - - 1.2
27/03:30pm 5.3 1.6 4.3 93 0.5 SSW 13 26 7 14 - - 0.2
27/03:00pm 5.4 2.8 4.2 92 0.6 SSE 7 13 4 7 - - 0.0
27/02:30pm 7.4 3.7 2.3 70 2.3 WNW 11 20 6 11 - - 0.0
27/02:00pm 7.3 3.7 2.8 73 2.0 W 11 19 6 10 - - 0.0
27/01:30pm 5.7 3.6 3.9 88 0.8 S 4 9 2 5 - - 0.0
27/01:00pm 5.3 2.5 3.3 87 0.9 NNE 7 11 4 6 - - 0.0
27/12:30pm 6.6 3.7 2.5 75 1.8 WNW 7 19 4 10 - - 0.0
27/12:00pm 5.7 1.9 1.6 75 1.8 W 11 15 6 8 - - 0.0
27/11:30am 5.0 2.7 2.5 84 1.1 NE 4 7 2 4 - - 0.0
27/11:00am 5.7 2.9 3.0 83 1.2 W 7 17 4 9 - - 0.0
27/10:30am 4.9 2.1 3.4 90 0.7 WNW 7 13 4 7 - - 0.0
27/10:00am 5.4 1.9 1.3 75 1.8 WSW 9 17 5 9 - - 0.0
27/09:30am 5.3 2.5 1.8 78 1.5 WNW 6 20 3 11 - - 0.0
27/09:00am 4.3 1.7 3.1 92 0.5 NNW 6 9 3 5 - - 0.0
27/08:30am 4.1 1.2 1.6 84 1.1 WNW 6 11 3 6 - - 0.0
27/08:00am 4.1 1.1 0.8 79 1.4 W 6 9 3 5 - - 0.0
27/07:30am 3.8 1.0 1.8 87 0.9 N 6 9 3 5 - - 0.0
27/07:00am 3.7 0.3 2.1 89 0.7 N 9 15 5 8 - - 0.0
27/06:30am 3.4 -0.3 2.1 91 0.6 N 11 15 6 8 - - 0.0
27/06:00am 3.7 -0.8 1.9 88 0.8 N 15 19 8 10 - - 0.0
27/05:30am 3.6 -1.8 1.3 85 1.0 N 19 24 10 13 - - 0.0
27/05:00am 3.7 -1.4 0.9 82 1.2 N 17 20 9 11 - - 0.0
27/04:30am 3.6 -1.6 0.3 79 1.4 N 17 20 9 11 - - 0.0
27/04:00am 3.5 -0.9 0.2 79 1.4 N 13 20 7 11 - - 0.0
27/03:30am 3.4 -0.2 0.3 80 1.3 NNW 9 11 5 6 - - 0.0
27/03:00am 3.9 -0.1 0.6 79 1.4 N 11 15 6 8 - - 0.0
27/02:30am 3.9 0.6 0.2 77 1.5 N 7 9 4 5 - - 0.0
27/02:00am 3.8 0.2 0.3 78 1.4 NNW 9 11 5 6 - - 0.0
27/01:30am 3.8 -0.6 0.1 77 1.5 N 13 15 7 8 - - 0.0
27/01:00am 3.8 -0.2 0.3 78 1.4 N 11 15 6 8 - - 0.0
27/12:30am 3.7 -0.4 0.1 77 1.5 N 11 15 6 8 - - 0.0
27/12:00am 3.5 -0.6 -0.3 76 1.5 NNW 11 15 6 8 - - 0.0
 
Date/Time
EDT
Temp
°C
App
Temp
°C
Dew
Point
Rel
Hum
%
Delta-T
°C
Wind Press
QNH
hPa
Press
MSL
hPa
Rain
since 9 am
mm
Dir
 
Spd
km/h
Gust
km/h
Spd
kts
Gust
kts
26/11:30pm 3.2 -0.2 -0.4 77 1.4 NNW 7 13 4 7 - - 0.0
26/11:00pm 2.9 -0.3 -0.7 77 1.4 NW 6 7 3 4 - - 0.0
26/10:30pm 3.1 0.2 -0.9 75 1.6 WNW 4 6 2 3 - - 0.0
26/10:00pm 3.4 -0.7 -0.4 76 1.5 NW 11 20 6 11 - - 0.0
26/09:30pm 3.5 -1.7 -0.1 77 1.5 WNW 17 20 9 11 - - 0.0
26/09:00pm 3.6 -2.6 -0.2 76 1.5 WNW 22 32 12 17 - - 0.0
26/08:30pm 4.1 -1.7 -0.3 73 1.8 WNW 20 24 11 13 - - 0.0
26/08:00pm 4.4 -1.3 0.6 76 1.6 W 20 32 11 17 - - 0.0
26/07:30pm 5.1 0.0 0.7 73 1.9 W 17 24 9 13 - - 0.0
26/07:00pm 5.7 0.2 0.7 70 2.1 W 19 30 10 16 - - 0.0
26/06:30pm 6.0 0.6 1.3 72 2.0 W 19 30 10 16 - - 0.0
26/06:00pm 7.2 1.9 1.7 68 2.4 WNW 19 28 10 15 - - 0.0
26/05:30pm 6.5 2.1 2.8 77 1.7 W 15 20 8 11 - - 0.0
26/05:00pm 5.8 0.9 1.7 75 1.8 WSW 17 24 9 13 - - 0.0
26/04:30pm 6.5 1.1 1.2 69 2.3 WSW 19 28 10 15 - - 0.0
26/04:00pm 8.0 2.4 1.4 63 2.9 WSW 20 28 11 15 - - 0.0
26/03:30pm 7.6 1.5 0.1 59 3.2 WSW 22 35 12 19 - - 0.0
26/03:00pm 7.9 1.4 0.4 59 3.2 WSW 24 35 13 19 - - 0.0
26/02:30pm 8.1 0.2 1.3 62 3.0 WSW 32 43 17 23 - - 0.0
26/02:00pm 7.8 -0.3 1.0 62 3.0 WSW 33 48 18 26 - - 0.0
26/01:30pm 7.3 -4.0 1.0 64 2.7 W 50 61 27 33 - - 0.0
26/01:00pm 7.0 -1.4 1.7 69 2.3 WSW 35 50 19 27 - - 0.0
26/12:30pm 6.5 -2.0 1.0 68 2.4 WSW 35 46 19 25 - - 0.0
26/12:00pm 4.7 -3.6 1.9 82 1.2 WSW 35 48 19 26 - - 0.0
26/11:30am 4.7 -3.8 0.8 76 1.6 WSW 35 46 19 25 - - 0.0
26/11:00am 4.0 -3.8 1.5 84 1.1 W 32 43 17 23 - - 0.0
26/10:30am 3.5 -4.3 1.5 87 0.8 WSW 32 44 17 24 - - 0.0
26/10:00am 4.6 -3.5 1.3 79 1.4 WSW 33 46 18 25 - - 0.0
26/09:30am 3.1 -5.0 1.2 87 0.8 WSW 33 43 18 23 - - 0.0
26/09:00am 2.7 -6.2 0.6 86 0.9 WSW 37 52 20 28 - - 0.2
26/08:30am 1.6 -7.3 1.0 96 0.2 WSW 37 52 20 28 - - 0.2
26/08:00am 1.3 -9.3 0.9 97 0.2 WSW 46 56 25 30 - - 0.2
26/07:30am 0.9 -9.7 0.6 98 0.1 WSW 46 61 25 33 - - 0.2
26/07:00am 0.8 -9.3 0.5 98 0.1 WSW 43 57 23 31 - - 0.2
26/06:49am 0.8 -10.2 0.5 98 0.1 WSW 48 69 26 37 - - 0.2
26/06:30am 0.9 -8.8 0.6 98 0.1 WSW 41 52 22 28 - - 0.2
26/06:00am 0.7 -10.0 0.4 98 0.1 WSW 46 61 25 33 - - 0.2
26/05:30am 0.8 -10.6 0.5 98 0.1 WSW 50 63 27 34 - - 0.2
26/05:00am 0.7 -11.9 0.3 97 0.2 WSW 56 70 30 38 - - 0.2
26/04:30am 0.7 -11.9 0.3 97 0.2 WSW 56 69 30 37 - - 0.2
26/04:00am 0.7 -12.4 0.3 97 0.2 WSW 59 72 32 39 - - 0.2
26/03:30am 0.5 -12.7 -0.2 95 0.3 WSW 59 74 32 40 - - 0.2
26/03:01am 0.5 -12.3 -0.1 96 0.2 WSW 57 78 31 42 - - 0.2
26/03:00am 0.5 -12.3 -0.1 96 0.2 WSW 57 74 31 40 - - 0.2
26/02:37am 0.4 -12.5 -0.3 95 0.3 WSW 57 78 31 42 - - 0.2
26/02:30am 0.3 -12.6 -0.4 95 0.3 WSW 57 70 31 38 - - 0.2
26/02:00am 0.1 -12.8 -0.3 97 0.2 WSW 57 70 31 38 - - 0.2
26/01:31am 0.3 -11.2 -0.1 97 0.2 WSW 50 69 27 37 - - 0.2
26/01:30am 0.3 -11.2 -0.1 97 0.2 WSW 50 69 27 37 - - 0.2
26/01:21am 0.3 -10.8 -0.1 97 0.2 WSW 48 69 26 37 - - 0.2
26/01:00am 0.3 -10.1 -0.1 97 0.2 WSW 44 57 24 31 - - 0.2
26/12:30am 0.4 -9.8 0.0 97 0.2 WSW 43 57 23 31 - - 0.2
26/12:03am 0.5 -9.8 0.1 97 0.2 WSW 44 65 24 35 - - 0.2
26/12:00am 0.5 -10.6 -0.1 96 0.2 WSW 48 65 26 35 - - 0.2
 
Date/Time
EDT
Temp
°C
App
Temp
°C
Dew
Point
Rel
Hum
%
Delta-T
°C
Wind Press
QNH
hPa
Press
MSL
hPa
Rain
since 9 am
mm
Dir
 
Spd
km/h
Gust
km/h
Spd
kts
Gust
kts
25/11:43pm 0.3 -11.6 -0.1 97 0.2 W 52 72 28 39 - - 0.2
25/11:30pm 0.3 -12.9 -0.1 97 0.2 W 59 74 32 40 - - 0.2
25/11:00pm 0.0 -14.1 -1.0 93 0.4 WSW 63 78 34 42 - - 0.2
25/10:30pm 0.2 -13.9 -0.9 92 0.4 WSW 63 80 34 43 - - 0.2
25/10:00pm 0.3 -13.8 -1.1 90 0.6 WSW 63 80 34 43 - - 0.2
25/09:37pm 0.2 -12.7 -0.6 94 0.3 W 57 76 31 41 - - 0.2
25/09:30pm 0.2 -12.1 -0.6 94 0.3 W 54 69 29 37 - - 0.2
25/09:00pm 0.5 -10.2 -0.1 96 0.2 WSW 46 69 25 37 - - 0.2
25/08:46pm 0.6 -9.6 0.0 96 0.2 WSW 43 61 23 33 - - 0.2
25/08:30pm 0.8 -8.6 0.1 95 0.3 W 39 54 21 29 - - 0.2
25/08:00pm 1.0 -9.3 0.1 94 0.4 W 44 63 24 34 - - 0.2
25/07:30pm 1.1 -6.9 0.2 94 0.4 WSW 32 50 17 27 - - 0.2
25/07:04pm 1.8 -8.4 -0.4 85 0.9 WSW 43 63 23 34 - - 0.2
25/07:00pm 2.1 -7.7 0.0 86 0.8 WSW 41 57 22 31 - - 0.2
25/06:30pm 1.5 -10.0 -0.4 87 0.8 WSW 50 70 27 38 - - 0.2
25/06:02pm 2.8 -8.3 0.2 83 1.1 W 48 70 26 38 - - 0.2
25/06:00pm 2.8 -7.8 1.0 88 0.7 W 46 63 25 34 - - 0.2
25/05:31pm 1.4 -8.0 0.1 91 0.5 WSW 39 69 21 37 - - 0.2
25/05:30pm 1.9 -7.0 0.6 91 0.5 WSW 37 56 20 30 - - 0.2
25/05:00pm 4.7 -6.0 0.3 73 1.8 W 46 65 25 35 - - 0.0
25/04:31pm 4.4 -5.0 0.2 74 1.7 WNW 39 59 21 32 - - 0.0
25/04:30pm 4.3 -5.5 -0.1 73 1.8 WNW 41 59 22 32 - - 0.0
25/04:23pm 5.2 -4.2 -0.2 68 2.2 W 39 59 21 32 - - 0.0
25/04:00pm 5.1 -4.6 0.7 73 1.9 WNW 41 57 22 31 - - 0.0
25/03:54pm 4.7 -4.1 1.4 79 1.4 W 37 57 20 31 - - 0.0
25/03:31pm 4.4 -3.0 1.6 82 1.2 WSW 30 50 16 27 - - 0.0
25/03:30pm 5.1 -2.7 1.8 79 1.4 WSW 32 50 17 27 - - 0.0
25/03:00pm 6.2 -1.7 1.1 70 2.2 W 32 63 17 34 - - 0.0
25/02:48pm 5.5 -2.3 1.6 76 1.7 W 32 52 17 28 - - 0.0
25/02:30pm 6.7 -1.6 2.0 72 2.1 W 35 46 19 25 - - 0.0
25/02:00pm 5.5 -1.8 -0.3 66 2.4 W 28 46 15 25 - - 0.0
25/01:30pm 6.3 0.6 2.8 78 1.6 WSW 22 33 12 18 - - 0.0
25/01:00pm 6.0 0.3 2.6 79 1.5 W 22 30 12 16 - - 0.0
25/12:30pm 6.1 0.1 3.1 81 1.4 W 24 39 13 21 - - 0.0
25/12:00pm 5.8 -0.8 4.3 90 0.7 WSW 28 41 15 22 - - 0.0
25/11:30am 3.8 -2.6 3.2 96 0.3 WSW 26 35 14 19 - - 0.0
25/11:00am 3.4 -3.2 1.9 90 0.6 WSW 26 43 14 23 - - 0.0
25/10:37am 3.8 -3.1 2.8 93 0.4 W 28 46 15 25 - - 0.0
25/10:30am 3.5 -4.1 2.6 94 0.4 W 32 46 17 25 - - 0.0
25/10:00am 3.0 -5.3 2.4 96 0.3 WSW 35 43 19 23 - - 0.0
25/09:30am 3.0 -5.7 1.8 92 0.5 WSW 37 46 20 25 - - 0.0
25/09:00am 3.0 -4.0 1.8 92 0.5 W 28 41 15 22 - - 0.8
25/08:30am 3.6 -3.2 3.0 96 0.3 W 28 48 15 26 - - 0.8
25/08:29am 3.7 -3.1 3.0 95 0.3 W 28 48 15 26 - - 0.8
25/08:00am 4.3 -1.4 2.7 89 0.7 WSW 22 41 12 22 - - 0.4
25/07:30am 3.9 -3.6 3.3 96 0.3 W 32 44 17 24 - - 0.4
25/07:00am 4.2 -3.3 3.5 95 0.3 W 32 44 17 24 - - 0.4
25/06:44am 4.4 -5.4 3.5 94 0.4 W 44 63 24 34 - - 0.4
25/06:30am 4.7 -4.9 4.3 97 0.2 W 44 57 24 31 - - 0.4
25/06:00am 5.1 -3.9 4.7 97 0.2 W 41 50 22 27 - - 0.2
25/05:30am 5.6 -1.6 5.2 97 0.2 WSW 32 44 17 24 - - 0.0
25/05:00am 6.0 0.0 5.4 96 0.3 W 26 30 14 16 - - 0.0
25/04:30am 6.7 0.3 5.3 91 0.7 W 28 37 15 20 - - 0.0
25/04:00am 6.9 -2.4 5.1 88 0.9 WNW 43 57 23 31 - - 0.0
25/03:30am 7.0 -3.6 5.0 87 1.0 WNW 50 63 27 34 - - 0.0
25/03:00am 7.0 -4.4 4.8 86 1.0 NW 54 69 29 37 - - 0.0
25/02:30am 7.0 -2.9 4.7 85 1.1 NW 46 61 25 33 - - 0.0
25/02:00am 7.0 -2.4 4.3 83 1.3 NW 43 52 23 28 - - 0.0
25/01:30am 7.2 -2.4 4.2 81 1.4 NW 44 56 24 30 - - 0.0
25/01:00am 7.3 -2.4 4.1 80 1.5 NW 44 57 24 31 - - 0.0
25/12:37am 7.4 -2.0 4.5 82 1.4 NW 43 63 23 34 - - 0.0
25/12:30am 7.5 -2.1 4.6 82 1.4 NW 44 63 24 34 - - 0.0
25/12:00am 7.8 -2.5 4.6 80 1.5 NNW 48 67 26 36 - - 0.0
 
Date/Time
EDT
Temp
°C
App
Temp
°C
Dew
Point
Rel
Hum
%
Delta-T
°C
Wind Press
QNH
hPa
Press
MSL
hPa
Rain
since 9 am
mm
Dir
 
Spd
km/h
Gust
km/h
Spd
kts
Gust
kts
24/11:55pm 7.9 -2.0 4.7 80 1.5 NNW 46 67 25 36 - - 0.0
24/11:30pm 8.0 -1.5 5.1 82 1.4 NW 44 57 24 31 - - 0.0
24/11:00pm 8.4 0.9 6.4 87 1.0 NW 35 54 19 29 - - 0.0
24/10:56pm 8.6 1.1 6.1 84 1.2 NNW 35 54 19 29 - - 0.0
24/10:30pm 9.1 2.3 6.7 85 1.2 NNW 32 41 17 22 - - 0.0
24/10:00pm 9.3 5.8 7.4 88 1.0 NNW 15 28 8 15 - - 0.0
24/09:30pm 9.6 7.4 8.0 90 0.8 NNW 9 13 5 7 - - 0.0
24/09:00pm 9.9 7.3 7.7 86 1.1 NNW 11 13 6 7 - - 0.0
24/08:30pm 10.4 7.7 7.5 82 1.5 N 11 13 6 7 - - 0.0
24/08:00pm 10.9 8.6 7.4 79 1.8 N 9 11 5 6 - - 0.0
24/07:30pm 11.7 9.5 7.8 77 2.0 N 9 13 5 7 - - 0.0
24/07:00pm 12.3 10.1 8.0 75 2.3 N 9 15 5 8 - - 0.0
24/06:30pm 13.0 11.4 8.7 75 2.3 N 7 11 4 6 - - 0.0
24/06:00pm 13.9 11.2 9.1 73 2.6 NNW 13 20 7 11 - - 0.0
24/05:30pm 14.4 10.9 7.2 62 3.8 N 15 22 8 12 - - 0.0
24/05:00pm 14.6 11.3 7.9 64 3.6 N 15 32 8 17 - - 0.0

Other Formats:

Comma delimited format used in spreadsheet applications
http://www.bom.gov.au/fwo/IDT60801/IDT60801.95979.axf

JavaScript Object Notation format (JSON) in row-major order
http://www.bom.gov.au/fwo/IDT60801/IDT60801.95979.json